createdAt,value
2023-01-09T00:04:53.041Z,4.35
2023-01-09T00:09:56.734Z,6.65
2023-01-09T00:14:59.128Z,4.72
2023-01-09T00:20:01.660Z,5.72
2023-01-09T00:25:05.799Z,6.40
2023-01-09T00:30:08.883Z,3.03
2023-01-09T00:35:14.133Z,7.20
2023-01-09T00:40:18.363Z,2.85
2023-01-09T00:45:23.600Z,3.47
2023-01-09T00:50:27.800Z,2.42
2023-01-09T00:55:31.646Z,3.58
2023-01-09T01:00:34.289Z,2.47
2023-01-09T01:05:54.371Z,2.50
2023-01-09T01:10:58.049Z,2.55
2023-01-09T01:16:00.434Z,4.88
2023-01-09T01:21:06.532Z,4.60
2023-01-09T01:26:10.972Z,3.80
2023-01-09T01:31:22.069Z,3.60
2023-01-09T01:36:24.466Z,5.78
2023-01-09T01:41:30.262Z,3.58
2023-01-09T01:46:33.527Z,2.20
2023-01-09T01:51:37.780Z,3.05
2023-01-09T01:56:43.648Z,3.15
2023-01-09T02:01:49.037Z,3.50
2023-01-09T02:06:52.880Z,2.88
2023-01-09T02:11:58.275Z,4.75
2023-01-09T02:17:06.221Z,5.15
2023-01-09T02:22:12.887Z,4.35
2023-01-09T02:27:43.009Z,2.47
2023-01-09T02:32:51.914Z,2.10
2023-01-09T02:37:59.027Z,5.32
2023-01-09T02:43:02.283Z,6.00
2023-01-09T02:48:06.568Z,5.00
2023-01-09T02:53:22.418Z,5.25
2023-01-09T02:58:33.836Z,4.38
2023-01-09T03:03:41.423Z,5.80
2023-01-09T03:08:46.561Z,8.85
2023-01-09T03:13:51.650Z,8.38
2023-01-09T03:18:59.521Z,8.10
2023-01-09T03:24:02.775Z,9.18
2023-01-09T03:29:05.337Z,9.90
2023-01-09T03:34:09.237Z,10.20
2023-01-09T03:39:11.883Z,15.88
2023-01-09T03:44:14.705Z,16.37
2023-01-09T03:49:19.211Z,12.07
2023-01-09T03:54:21.852Z,17.27
2023-01-09T03:59:25.889Z,16.67
2023-01-09T04:04:29.802Z,15.65
2023-01-09T04:09:32.481Z,15.18
2023-01-09T04:14:35.253Z,12.73
2023-01-09T04:19:39.885Z,14.80
2023-01-09T04:24:42.539Z,15.13
2023-01-09T04:29:45.016Z,21.92
2023-01-09T04:34:48.976Z,10.43
2023-01-09T04:39:56.261Z,13.05
2023-01-09T04:44:58.876Z,11.55
2023-01-09T04:50:02.779Z,10.02
2023-01-09T04:55:07.582Z,9.00
2023-01-09T05:00:12.263Z,9.55
2023-01-09T05:05:16.325Z,12.13
2023-01-09T05:10:19.024Z,19.17
2023-01-09T05:15:21.772Z,10.17
2023-01-09T05:20:25.735Z,8.90
2023-01-09T05:25:28.339Z,8.88
2023-01-09T05:30:31.013Z,10.80
2023-01-09T05:35:34.945Z,11.38
2023-01-09T05:41:00.564Z,9.80
2023-01-09T05:46:04.342Z,14.90
2023-01-09T05:51:08.834Z,11.50
2023-01-09T05:56:12.040Z,12.65
2023-01-09T06:01:15.767Z,10.95
2023-01-09T06:06:19.793Z,13.18
2023-01-09T06:11:22.599Z,12.57
2023-01-09T06:16:25.301Z,10.73
2023-01-09T06:21:31.936Z,14.40
2023-01-09T06:26:34.414Z,11.15
2023-01-09T06:31:37.010Z,9.38
2023-01-09T06:36:44.270Z,7.53
2023-01-09T06:41:48.484Z,11.55
2023-01-09T06:46:51.350Z,8.85
2023-01-09T06:51:57.814Z,9.23
2023-01-09T06:57:00.572Z,8.73
2023-01-09T07:02:03.318Z,10.90
2023-01-09T07:07:07.600Z,6.23
2023-01-09T07:12:12.479Z,10.05
2023-01-09T07:17:15.338Z,10.90
2023-01-09T07:22:38.487Z,6.07
2023-01-09T07:27:41.263Z,7.50
2023-01-09T07:32:48.843Z,7.20
2023-01-09T07:37:54.668Z,6.65
2023-01-09T07:42:57.397Z,6.47
2023-01-09T07:48:00.113Z,6.63
2023-01-09T07:53:04.462Z,7.07
2023-01-09T07:58:07.435Z,6.32
2023-01-09T08:03:10.310Z,7.13
2023-01-09T08:08:15.201Z,5.93
2023-01-09T08:13:17.785Z,6.47
2023-01-09T08:18:20.483Z,6.15
2023-01-09T08:23:24.555Z,5.73
2023-01-09T08:28:27.515Z,7.70
2023-01-09T08:33:30.273Z,12.65
2023-01-09T08:38:34.339Z,8.83
2023-01-09T08:43:57.602Z,6.68
2023-01-09T08:49:00.182Z,9.52
2023-01-09T08:54:04.337Z,7.68
2023-01-09T08:59:09.105Z,11.23
2023-01-09T09:04:11.705Z,9.80
2023-01-09T09:09:15.515Z,9.10
2023-01-09T09:14:35.510Z,7.95
2023-01-09T09:19:39.504Z,5.40
2023-01-09T09:24:43.325Z,7.28
2023-01-09T09:29:45.813Z,5.95
2023-01-09T09:34:48.174Z,4.55
2023-01-09T09:39:51.885Z,5.53
2023-01-09T09:44:59.106Z,5.95
2023-01-09T09:50:06.926Z,7.28
2023-01-09T09:55:17.186Z,7.10
2023-01-09T10:00:20.786Z,6.65
2023-01-09T10:05:26.704Z,8.75
2023-01-09T10:10:33.896Z,7.40
2023-01-09T10:15:39.298Z,10.10
2023-01-09T10:20:45.644Z,7.20
2023-01-09T10:25:52.129Z,7.10
2023-01-09T10:30:58.613Z,8.50
2023-01-09T10:36:13.685Z,7.00
2023-01-09T10:41:19.561Z,10.35
2023-01-09T10:46:25.376Z,9.80
2023-01-09T10:51:32.638Z,7.85
2023-01-09T10:56:38.711Z,8.70
2023-01-09T11:01:42.300Z,7.75
2023-01-09T11:11:52.649Z,6.13
2023-01-09T11:16:56.041Z,3.03
2023-01-09T11:22:07.380Z,1.52
2023-01-09T11:27:24.812Z,3.38
2023-01-09T11:32:27.246Z,2.63
2023-01-09T11:37:30.514Z,3.05
2023-01-09T11:42:52.274Z,7.55
2023-01-09T11:47:54.675Z,3.95
2023-01-09T11:53:12.680Z,6.47
2023-01-09T11:58:17.362Z,5.82
2023-01-09T12:03:23.053Z,5.85
2023-01-09T12:08:29.562Z,7.03
2023-01-09T12:13:42.846Z,7.78
2023-01-09T12:18:51.536Z,4.40
2023-01-09T12:24:01.331Z,5.55
2023-01-09T12:29:27.819Z,5.80
2023-01-09T12:34:37.525Z,5.40
2023-01-09T12:39:44.459Z,3.85
2023-01-09T12:44:51.264Z,2.63
2023-01-09T12:50:00.616Z,2.72
2023-01-09T12:55:06.236Z,3.20
2023-01-09T13:00:15.161Z,4.65
2023-01-09T13:05:20.975Z,3.20
2023-01-09T13:10:25.994Z,5.70
2023-01-09T13:15:30.114Z,4.05
2023-01-09T13:20:37.282Z,6.80
2023-01-09T13:25:43.286Z,6.88
2023-01-09T13:30:58.804Z,6.85
2023-01-09T13:36:03.771Z,8.50
2023-01-09T13:41:23.120Z,7.55
2023-01-09T13:46:33.978Z,9.05
2023-01-09T13:51:56.355Z,7.60
2023-01-09T13:57:16.905Z,6.00
2023-01-09T14:02:34.235Z,8.05
2023-01-09T14:07:38.439Z,7.35
2023-01-09T14:12:41.896Z,11.30
2023-01-09T14:22:56.285Z,8.68
2023-01-09T14:28:21.304Z,20.45
2023-01-09T14:33:28.002Z,6.55
2023-01-09T14:38:33.213Z,7.82
2023-01-09T14:43:47.778Z,9.90
2023-01-09T14:48:54.991Z,7.00
2023-01-09T14:53:59.922Z,8.40
2023-01-09T14:59:06.059Z,4.97
2023-01-09T15:04:15.509Z,5.88
2023-01-09T15:09:21.324Z,6.97
2023-01-09T15:14:30.900Z,10.02
2023-01-09T15:19:33.401Z,10.65
2023-01-09T15:24:37.170Z,9.95
2023-01-09T15:29:39.519Z,8.85
2023-01-09T15:34:44.562Z,11.77
2023-01-09T15:39:48.980Z,11.30
2023-01-09T15:44:53.653Z,10.52
2023-01-09T15:49:56.681Z,9.95
2023-01-09T15:55:00.378Z,8.50
2023-01-09T16:00:21.462Z,11.20
2023-01-09T16:05:24.215Z,11.02
2023-01-09T16:10:31.262Z,14.38
2023-01-09T16:15:35.578Z,12.77
2023-01-09T16:20:38.625Z,18.95
2023-01-09T16:25:42.369Z,19.08
2023-01-09T16:30:51.349Z,15.98
2023-01-09T16:35:54.200Z,19.70
2023-01-09T16:41:22.129Z,16.20
2023-01-09T16:46:24.740Z,19.42
2023-01-09T16:51:29.407Z,17.40
2023-01-09T16:56:33.615Z,15.05
2023-01-09T17:01:35.994Z,19.15
2023-01-09T17:06:39.009Z,24.45
2023-01-09T17:11:43.083Z,24.98
2023-01-09T17:16:46.690Z,22.63
2023-01-09T17:21:49.212Z,17.88
2023-01-09T17:27:10.333Z,17.63
2023-01-09T17:32:14.634Z,26.55
2023-01-09T17:37:17.481Z,22.35
2023-01-09T17:42:21.309Z,21.50
2023-01-09T17:47:23.793Z,34.53
2023-01-09T17:52:26.680Z,40.42
2023-01-09T17:57:30.355Z,42.35
2023-01-09T18:07:35.038Z,38.45
2023-01-09T18:12:38.755Z,37.15
2023-01-09T18:17:41.351Z,37.50
2023-01-09T18:22:43.758Z,55.20
2023-01-09T18:27:47.520Z,37.00
2023-01-09T18:32:49.911Z,43.95
2023-01-09T18:37:52.322Z,44.83
2023-01-09T18:42:56.348Z,43.40
2023-01-09T18:47:58.775Z,47.25
2023-01-09T18:53:01.154Z,37.15
2023-01-09T18:58:05.005Z,42.58
2023-01-09T19:03:07.485Z,39.28
2023-01-09T19:08:09.925Z,34.15
2023-01-09T19:13:13.644Z,30.05
2023-01-09T19:18:16.226Z,29.42
2023-01-09T19:23:19.444Z,35.53
2023-01-09T19:28:23.219Z,35.63
2023-01-09T19:33:25.652Z,35.90
2023-01-09T19:38:28.124Z,32.35
2023-01-09T19:43:31.881Z,28.15
2023-01-09T19:48:34.362Z,32.40
2023-01-09T19:53:37.179Z,24.48
2023-01-09T19:58:41.024Z,29.53
2023-01-09T20:03:43.861Z,16.90
2023-01-09T20:08:47.452Z,16.73
2023-01-09T20:18:53.544Z,6.93
2023-01-09T20:23:56.767Z,12.35
2023-01-09T20:28:59.529Z,13.60
2023-01-09T20:34:03.235Z,14.73
2023-01-09T20:39:06.524Z,17.30
2023-01-09T20:44:10.505Z,14.30
2023-01-09T20:49:15.951Z,15.60
2023-01-09T20:54:20.335Z,19.85
2023-01-09T20:59:23.003Z,7.57
2023-01-09T21:04:26.844Z,9.23
2023-01-09T21:09:29.345Z,11.38
2023-01-09T21:14:31.800Z,15.10
2023-01-09T21:19:35.650Z,17.38
2023-01-09T21:24:38.059Z,20.02
2023-01-09T21:29:40.470Z,27.35
2023-01-09T21:34:44.259Z,25.45
2023-01-09T21:39:46.821Z,23.40
2023-01-09T21:45:07.061Z,21.48
2023-01-09T21:50:11.624Z,24.77
2023-01-09T21:55:14.061Z,19.05
2023-01-09T22:00:17.006Z,24.02
2023-01-09T22:05:20.720Z,26.48
2023-01-09T22:10:23.215Z,25.48
2023-01-09T22:15:25.558Z,20.58
2023-01-09T22:20:29.252Z,23.88
2023-01-09T22:25:31.577Z,27.60
2023-01-09T22:30:33.917Z,27.30
2023-01-09T22:35:37.662Z,26.33
2023-01-09T22:40:40.037Z,28.75
2023-01-09T22:45:42.453Z,24.58
2023-01-09T22:50:46.193Z,26.02
2023-01-09T22:55:55.432Z,22.88
2023-01-09T23:00:58.118Z,30.00
2023-01-09T23:06:02.467Z,38.73
2023-01-09T23:11:06.561Z,25.83
2023-01-09T23:16:09.361Z,29.63
2023-01-09T23:21:13.064Z,36.67
2023-01-09T23:26:15.441Z,29.08
2023-01-09T23:31:17.836Z,19.13
2023-01-09T23:36:23.763Z,24.40
2023-01-09T23:41:46.816Z,26.65
2023-01-09T23:46:49.375Z,19.63
2023-01-09T23:51:53.077Z,22.50
2023-01-09T23:56:56.498Z,22.55
